Forest fire From: 18-06-2018 11:00 Until: 19-06-2018 10:14 warning for: Forest fire Level: Yellow info button
suomi:
Metsäpalovaroitus on voimassa.

svenska:
Varning för skogsbrand gäller.

english:
A forest fire warning is in force. 


Thunder radar more information blitzortung!


Löydät sääaseman tiedot myös:

European Weather Network

Finland Weather Exchange

Weather Underground

AWEKAS



Weather Underground säähistoriasivu

Päivittäin yhteenveto Tammikuu 11, 2017 Yksiköt:  Molemmat    Englantilaiset   Metriset
« Edellinen Päivä
Seuraava Päivä »
Päivittäin Viikoittain Kuukausittain Vuosittain Mukautettu
  Korkea: Matala: Keskiarvo:
Lämpötila: TemperatureC °F /  -17.8 °C -1.6 °F /  -18.7 °C 0.8 °F /  -17.3 °C
Kastepiste: DewpointC °F /  -17.8 °C -5.0 °F /  -20.6 °C -1 °F /  -18.3 °C
Kosteus: Humidity % 76 % 87 %
Tuulen nopeus: WindSpeedKMH mph /  0 km/h - 0 mph /  0 km/h
Tuulenpuuska: WindSpeedGustKMH mph /  0 km/h - -
Tuuli:- - North
Ilmanpaine: PressurehPa in /  0 hPa 984.3 in /  33328.4 hPa -
Sade: 0.0 in /  0 mm    
Historical Graphs
 
 
Taulukkotiedot Tammikuu 11, 2017
Aika Lämpötila Kastepiste Ilmanpaine Tuuli Tuulen nopeus Tuulenpuuska Kosteus Sademäärä (tunneittain)
TemperatureC °F /  -17.8 °C DewpointC °F /  -17.8 °C PressurehPa in /  0 hPa Calm     Humidity % HourlyPrecipMM in /  0 mm
00:00 0.9 °F /  -17.3 °C 0.0 °F /  -17.8 °C 1001.6 in /  33914.2 hPa Calm     94 % 0.0 in /  0 mm
00:15 0.8 °F /  -17.3 °C -0.2 °F /  -17.9 °C 1001.6 in /  33914.2 hPa Calm     93 % 0.0 in /  0 mm
00:30 0.8 °F /  -17.3 °C -0.2 °F /  -17.9 °C 1001.6 in /  33914.2 hPa Calm     93 % 0.0 in /  0 mm
00:45 0.9 °F /  -17.3 °C -0.3 °F /  -17.9 °C 1001.2 in /  33900.6 hPa Calm     92 % 0.0 in /  0 mm
01:00 0.9 °F /  -17.3 °C -0.2 °F /  -17.9 °C 1000.9 in /  33890.5 hPa Calm     92 % 0.0 in /  0 mm
01:15 0.9 °F /  -17.3 °C -0.2 °F /  -17.9 °C 1000.6 in /  33880.3 hPa Calm     92 % 0.0 in /  0 mm
01:30 1.0 °F /  -17.2 °C -0.2 °F /  -17.9 °C 1000.6 in /  33880.3 hPa Calm     92 % 0.0 in /  0 mm
01:45 1.0 °F /  -17.2 °C -0.2 °F /  -17.9 °C 1000.2 in /  33866.8 hPa Calm     92 % 0.0 in /  0 mm
02:00 1.1 °F /  -17.2 °C -0.1 °F /  -17.8 °C 999.9 in /  33856.6 hPa Calm     92 % 0.0 in /  0 mm
02:15 1.2 °F /  -17.1 °C -0.1 °F /  -17.8 °C 999.9 in /  33856.6 hPa Calm     91 % 0.0 in /  0 mm
02:30 1.2 °F /  -17.1 °C -0.1 °F /  -17.8 °C 999.5 in /  33843.1 hPa Calm     91 % 0.0 in /  0 mm
02:45 0.9 °F /  -17.3 °C -0.1 °F /  -17.8 °C 999.2 in /  33832.9 hPa Calm     93 % 0.0 in /  0 mm
03:00 0.7 °F /  -17.4 °C -0.3 °F /  -17.9 °C 998.5 in /  33809.2 hPa Calm     93 % 0.0 in /  0 mm
03:15 0.7 °F /  -17.4 °C -0.3 °F /  -17.9 °C 998.5 in /  33809.2 hPa Calm     93 % 0.0 in /  0 mm
03:30 0.8 °F /  -17.3 °C -0.4 °F /  -18 °C 998.5 in /  33809.2 hPa Calm     92 % 0.0 in /  0 mm
03:45 0.9 °F /  -17.3 °C -0.4 °F /  -18 °C 998.5 in /  33809.2 hPa Calm     91 % 0.0 in /  0 mm
04:00 0.9 °F /  -17.3 °C -0.5 °F /  -18.1 °C 998.2 in /  33799.1 hPa Calm     90 % 0.0 in /  0 mm
04:15 1.1 °F /  -17.2 °C -0.6 °F /  -18.1 °C 997.9 in /  33788.9 hPa Calm     89 % 0.0 in /  0 mm
04:30 1.1 °F /  -17.2 °C -0.6 °F /  -18.1 °C 997.9 in /  33788.9 hPa Calm     89 % 0.0 in /  0 mm
04:45 0.9 °F /  -17.3 °C -0.5 °F /  -18.1 °C 997.9 in /  33788.9 hPa Calm     90 % 0.0 in /  0 mm
05:00 0.9 °F /  -17.3 °C -0.4 °F /  -18 °C 997.5 in /  33775.4 hPa Calm     91 % 0.0 in /  0 mm
05:15 0.9 °F /  -17.3 °C -0.4 °F /  -18 °C 997.5 in /  33775.4 hPa Calm     91 % 0.0 in /  0 mm
05:30 0.8 °F /  -17.3 °C -0.3 °F /  -17.9 °C 997.2 in /  33765.2 hPa Calm     92 % 0.0 in /  0 mm
05:45 0.8 °F /  -17.3 °C -0.2 °F /  -17.9 °C 996.8 in /  33751.6 hPa Calm     93 % 0.0 in /  0 mm
06:00 0.8 °F /  -17.3 °C -0.3 °F /  -17.9 °C 996.5 in /  33741.5 hPa Calm     92 % 0.0 in /  0 mm
06:15 0.9 °F /  -17.3 °C -0.3 °F /  -17.9 °C 996.5 in /  33741.5 hPa Calm     92 % 0.0 in /  0 mm
06:30 0.9 °F /  -17.3 °C -0.2 °F /  -17.9 °C 996.2 in /  33731.3 hPa Calm     92 % 0.0 in /  0 mm
06:45 0.9 °F /  -17.3 °C -0.2 °F /  -17.9 °C 995.8 in /  33717.8 hPa Calm     92 % 0.0 in /  0 mm
07:00 1.0 °F /  -17.2 °C -0.2 °F /  -17.9 °C 995.5 in /  33707.6 hPa Calm     92 % 0.0 in /  0 mm
07:15 1.0 °F /  -17.2 °C -0.2 °F /  -17.9 °C 995.1 in /  33694.1 hPa Calm     92 % 0.0 in /  0 mm
07:30 1.1 °F /  -17.2 °C -0.1 °F /  -17.8 °C 994.8 in /  33683.9 hPa Calm     92 % 0.0 in /  0 mm
07:45 1.1 °F /  -17.2 °C -0.1 °F /  -17.8 °C 994.8 in /  33683.9 hPa Calm     92 % 0.0 in /  0 mm
08:00 1.2 °F /  -17.1 °C 0.2 °F /  -17.7 °C 994.8 in /  33683.9 hPa Calm     93 % 0.0 in /  0 mm
08:15 1.3 °F /  -17.1 °C 0.2 °F /  -17.7 °C 994.5 in /  33673.8 hPa Calm     92 % 0.0 in /  0 mm
08:30 1.4 °F /  -17 °C 0.2 °F /  -17.7 °C 994.5 in /  33673.8 hPa Calm     92 % 0.0 in /  0 mm
08:45 1.4 °F /  -17 °C 0.4 °F /  -17.6 °C 994.1 in /  33660.2 hPa Calm     93 % 0.0 in /  0 mm
09:00 1.4 °F /  -17 °C 0.4 °F /  -17.6 °C 994.1 in /  33660.2 hPa Calm     93 % 0.0 in /  0 mm
09:15 1.5 °F /  -16.9 °C 0.5 °F /  -17.5 °C 993.8 in /  33650.1 hPa Calm     93 % 0.0 in /  0 mm
09:30 1.5 °F /  -16.9 °C 0.3 °F /  -17.6 °C 993.8 in /  33650.1 hPa Calm     92 % 0.0 in /  0 mm
09:45 1.5 °F /  -16.9 °C 0.3 °F /  -17.6 °C 993.5 in /  33639.9 hPa Calm     92 % 0.0 in /  0 mm
10:00 1.5 °F /  -16.9 °C 0.2 °F /  -17.7 °C 993.5 in /  33639.9 hPa Calm     91 % 0.0 in /  0 mm
10:15 1.6 °F /  -16.9 °C 0.1 °F /  -17.7 °C 993.1 in /  33626.4 hPa Calm     90 % 0.0 in /  0 mm
10:30 1.5 °F /  -16.9 °C 0.2 °F /  -17.7 °C 993.1 in /  33626.4 hPa Calm     91 % 0.0 in /  0 mm
10:45 1.5 °F /  -16.9 °C 0.0 °F /  -17.8 °C 992.8 in /  33616.2 hPa Calm     90 % 0.0 in /  0 mm
11:00 1.6 °F /  -16.9 °C -0.1 °F /  -17.8 °C 992.8 in /  33616.2 hPa Calm     89 % 0.0 in /  0 mm
11:15 1.4 °F /  -17 °C -0.1 °F /  -17.8 °C 992.4 in /  33602.7 hPa Calm     90 % 0.0 in /  0 mm
11:30 1.5 °F /  -16.9 °C -0.1 °F /  -17.8 °C 992.1 in /  33592.5 hPa Calm     89 % 0.0 in /  0 mm
11:45 1.6 °F /  -16.9 °C -0.1 °F /  -17.8 °C 991.8 in /  33582.3 hPa Calm     89 % 0.0 in /  0 mm
12:00 1.5 °F /  -16.9 °C -0.1 °F /  -17.8 °C 991.4 in /  33568.8 hPa Calm     89 % 0.0 in /  0 mm
12:15 1.6 °F /  -16.9 °C -0.2 °F /  -17.9 °C 991.4 in /  33568.8 hPa Calm     88 % 0.0 in /  0 mm
12:30 1.6 °F /  -16.9 °C 0.0 °F /  -17.8 °C 991.4 in /  33568.8 hPa Calm     89 % 0.0 in /  0 mm
12:45 1.3 °F /  -17.1 °C 0.0 °F /  -17.8 °C 991.4 in /  33568.8 hPa Calm     91 % 0.0 in /  0 mm
13:00 1.1 °F /  -17.2 °C 0.1 °F /  -17.7 °C 991.1 in /  33558.6 hPa Calm     93 % 0.0 in /  0 mm
13:15 0.9 °F /  -17.3 °C -0.1 °F /  -17.8 °C 991.1 in /  33558.6 hPa Calm     93 % 0.0 in /  0 mm
13:30 0.8 °F /  -17.3 °C 0.0 °F /  -17.8 °C 991.1 in /  33558.6 hPa Calm     94 % 0.0 in /  0 mm
13:45 0.9 °F /  -17.3 °C -0.1 °F /  -17.8 °C 990.7 in /  33545.1 hPa Calm     93 % 0.0 in /  0 mm
14:00 0.9 °F /  -17.3 °C -0.3 °F /  -17.9 °C 990.7 in /  33545.1 hPa Calm     92 % 0.0 in /  0 mm
14:15 0.8 °F /  -17.3 °C -0.3 °F /  -17.9 °C 990.7 in /  33545.1 hPa Calm     92 % 0.0 in /  0 mm
14:30 0.8 °F /  -17.3 °C -0.6 °F /  -18.1 °C 990.4 in /  33534.9 hPa Calm     90 % 0.0 in /  0 mm
14:45 0.9 °F /  -17.3 °C -0.7 °F /  -18.2 °C 990.4 in /  33534.9 hPa Calm     89 % 0.0 in /  0 mm
15:00 0.9 °F /  -17.3 °C -0.7 °F /  -18.2 °C 990.1 in /  33524.8 hPa Calm     89 % 0.0 in /  0 mm
15:15 1.0 °F /  -17.2 °C -0.8 °F /  -18.2 °C 990.1 in /  33524.8 hPa Calm     88 % 0.0 in /  0 mm
15:30 1.0 °F /  -17.2 °C -0.8 °F /  -18.2 °C 989.7 in /  33511.2 hPa Calm     88 % 0.0 in /  0 mm
15:45 1.1 °F /  -17.2 °C -1.0 °F /  -18.3 °C 989.4 in /  33501.1 hPa Calm     86 % 0.0 in /  0 mm
16:00 1.1 °F /  -17.2 °C -1.0 °F /  -18.3 °C 989.1 in /  33490.9 hPa Calm     86 % 0.0 in /  0 mm
16:15 1.1 °F /  -17.2 °C -1.2 °F /  -18.4 °C 989.1 in /  33490.9 hPa Calm     85 % 0.0 in /  0 mm
16:30 1.1 °F /  -17.2 °C -1.3 °F /  -18.5 °C 988.7 in /  33477.4 hPa Calm     84 % 0.0 in /  0 mm
16:45 1.1 °F /  -17.2 °C -1.1 °F /  -18.4 °C 988.4 in /  33467.2 hPa Calm     85 % 0.0 in /  0 mm
17:00 1.1 °F /  -17.2 °C -1.3 °F /  -18.5 °C 988.4 in /  33467.2 hPa Calm     84 % 0.0 in /  0 mm
17:15 1.1 °F /  -17.2 °C -1.3 °F /  -18.5 °C 988.0 in /  33453.7 hPa Calm     84 % 0.0 in /  0 mm
17:30 1.1 °F /  -17.2 °C -1.5 °F /  -18.6 °C 988.0 in /  33453.7 hPa Calm     83 % 0.0 in /  0 mm
17:45 1.1 °F /  -17.2 °C -1.5 °F /  -18.6 °C 987.7 in /  33443.5 hPa Calm     83 % 0.0 in /  0 mm
18:00 1.2 °F /  -17.1 °C -1.6 °F /  -18.7 °C 987.4 in /  33433.4 hPa Calm     82 % 0.0 in /  0 mm
18:15 1.2 °F /  -17.1 °C -1.6 °F /  -18.7 °C 987.0 in /  33419.8 hPa Calm     82 % 0.0 in /  0 mm
18:30 1.2 °F /  -17.1 °C -1.7 °F /  -18.7 °C 987.0 in /  33419.8 hPa Calm     81 % 0.0 in /  0 mm
18:45 1.3 °F /  -17.1 °C -1.8 °F /  -18.8 °C 986.7 in /  33409.7 hPa Calm     80 % 0.0 in /  0 mm
19:00 1.2 °F /  -17.1 °C -1.8 °F /  -18.8 °C 986.7 in /  33409.7 hPa Calm     80 % 0.0 in /  0 mm
19:15 1.1 °F /  -17.2 °C -2.0 °F /  -18.9 °C 986.3 in /  33396.1 hPa Calm     80 % 0.0 in /  0 mm
19:30 1.0 °F /  -17.2 °C -1.9 °F /  -18.8 °C 986.0 in /  33386 hPa Calm     81 % 0.0 in /  0 mm
19:45 0.7 °F /  -17.4 °C -2.1 °F /  -18.9 °C 986.0 in /  33386 hPa Calm     82 % 0.0 in /  0 mm
20:00 0.6 °F /  -17.4 °C -2.2 °F /  -19 °C 985.7 in /  33375.8 hPa Calm     82 % 0.0 in /  0 mm
20:15 0.5 °F /  -17.5 °C -2.4 °F /  -19.1 °C 985.7 in /  33375.8 hPa Calm     81 % 0.0 in /  0 mm
20:30 0.6 °F /  -17.4 °C -2.5 °F /  -19.2 °C 985.3 in /  33362.3 hPa Calm     80 % 0.0 in /  0 mm
20:45 0.4 °F /  -17.6 °C -2.6 °F /  -19.2 °C 985.3 in /  33362.3 hPa Calm     80 % 0.0 in /  0 mm
21:00 0.4 °F /  -17.6 °C -2.8 °F /  -19.3 °C 985.7 in /  33375.8 hPa Calm     79 % 0.0 in /  0 mm
21:15 0.2 °F /  -17.7 °C -3.2 °F /  -19.6 °C 985.3 in /  33362.3 hPa Calm     78 % 0.0 in /  0 mm
21:30 0.1 °F /  -17.7 °C -3.3 °F /  -19.6 °C 985.3 in /  33362.3 hPa Calm     78 % 0.0 in /  0 mm
21:45 -0.2 °F /  -17.9 °C -3.7 °F /  -19.8 °C 985.3 in /  33362.3 hPa Calm     77 % 0.0 in /  0 mm
22:00 -0.6 °F /  -18.1 °C -4.1 °F /  -20.1 °C 985.3 in /  33362.3 hPa Calm     77 % 0.0 in /  0 mm
22:15 -0.9 °F /  -18.3 °C -4.6 °F /  -20.3 °C 985.3 in /  33362.3 hPa Calm     76 % 0.0 in /  0 mm
22:30 -1.2 °F /  -18.4 °C -4.9 °F /  -20.5 °C 985.0 in /  33352.1 hPa Calm     76 % 0.0 in /  0 mm
22:45 -1.3 °F /  -18.5 °C -4.8 °F /  -20.4 °C 984.6 in /  33338.6 hPa Calm     77 % 0.0 in /  0 mm
23:00 -1.4 °F /  -18.6 °C -5.0 °F /  -20.6 °C 984.6 in /  33338.6 hPa Calm     77 % 0.0 in /  0 mm
23:15 -1.5 °F /  -18.6 °C -5.0 °F /  -20.6 °C 984.6 in /  33338.6 hPa Calm     77 % 0.0 in /  0 mm
23:30 -1.6 °F /  -18.7 °C -4.9 °F /  -20.5 °C 984.3 in /  33328.4 hPa Calm     78 % 0.0 in /  0 mm
23:45 -1.6 °F /  -18.7 °C -4.9 °F /  -20.5 °C 984.3 in /  33328.4 hPa Calm     78 % 0.0 in /  0 mm
Esan sääasema
Terveisin Weather Underground - 2.75 mb

Alkuperäinen skripti  Jim McMurry - jmcmurry@mwt.net Sovitettu myös templatelle  Wim van der Kuil - Leuven-Template.eu

Laitteet joita käytämme:

Sääasema
Davis VP2

Sääasemaohjelma
Cumulus

Sääaseman tietokone
Asus EeePC

Palveluntarjoaja
Suncomet

Davis VP2

Cumulus

Asus EeePC

Suncomet